createdAt,value
2018-07-24T00:00:41.140Z,31.10
2018-07-24T00:03:09.976Z,29.27
2018-07-24T00:05:38.823Z,28.43
2018-07-24T00:08:07.605Z,31.83
2018-07-24T00:10:36.336Z,32.53
2018-07-24T00:13:04.971Z,32.20
2018-07-24T00:15:33.862Z,31.50
2018-07-24T00:18:02.604Z,30.70
2018-07-24T00:20:31.404Z,31.03
2018-07-24T00:23:00.124Z,33.60
2018-07-24T00:25:28.952Z,34.27
2018-07-24T00:27:58.031Z,32.87
2018-07-24T00:30:26.800Z,32.43
2018-07-24T00:32:55.584Z,33.00
2018-07-24T00:35:24.328Z,32.90
2018-07-24T00:37:53.051Z,34.37
2018-07-24T00:40:21.786Z,33.20
2018-07-24T00:42:50.602Z,32.27
2018-07-24T00:45:19.477Z,34.23
2018-07-24T00:47:48.548Z,34.60
2018-07-24T00:50:17.297Z,35.60
2018-07-24T00:52:46.055Z,33.63
2018-07-24T00:55:15.128Z,35.00
2018-07-24T00:57:43.824Z,34.87
2018-07-24T01:00:12.447Z,36.30
2018-07-24T01:02:41.292Z,35.27
2018-07-24T01:05:10.084Z,33.00
2018-07-24T01:07:39.303Z,32.37
2018-07-24T01:10:10.120Z,33.17
2018-07-24T01:12:38.750Z,31.93
2018-07-24T01:15:08.023Z,35.20
2018-07-24T01:17:37.393Z,34.10
2018-07-24T01:20:06.521Z,32.87
2018-07-24T01:22:35.576Z,34.80
2018-07-24T01:25:04.387Z,31.10
2018-07-24T01:27:33.324Z,34.87
2018-07-24T01:30:02.547Z,34.20
2018-07-24T01:32:31.176Z,33.00
2018-07-24T01:34:59.907Z,35.00
2018-07-24T01:37:28.653Z,34.30
2018-07-24T01:39:57.522Z,35.87
2018-07-24T01:42:26.136Z,33.27
2018-07-24T01:44:54.903Z,32.10
2018-07-24T01:47:23.968Z,34.20
2018-07-24T01:49:52.528Z,33.80
2018-07-24T01:52:21.988Z,35.73
2018-07-24T01:54:50.562Z,34.17
2018-07-24T01:57:19.201Z,36.07
2018-07-24T01:59:47.991Z,35.87
2018-07-24T02:02:16.592Z,35.60
2018-07-24T02:04:45.779Z,39.47
2018-07-24T02:07:14.588Z,38.07
2018-07-24T02:09:43.472Z,32.40
2018-07-24T02:12:12.427Z,37.80
2018-07-24T02:14:41.127Z,37.77
2018-07-24T02:17:09.952Z,36.00
2018-07-24T02:19:38.592Z,39.33
2018-07-24T02:22:07.507Z,35.90
2018-07-24T02:24:36.179Z,35.07
2018-07-24T02:27:05.484Z,37.77
2018-07-24T02:29:34.082Z,36.27
2018-07-24T02:32:03.190Z,38.20
2018-07-24T02:34:31.893Z,39.20
2018-07-24T02:37:00.579Z,41.07
2018-07-24T02:39:29.337Z,37.37
2018-07-24T02:41:58.542Z,38.80
2018-07-24T02:44:27.198Z,38.10
2018-07-24T02:46:56.026Z,37.40
2018-07-24T02:49:24.778Z,37.97
2018-07-24T02:51:53.696Z,37.17
2018-07-24T02:54:22.604Z,38.70
2018-07-24T02:56:51.236Z,36.90
2018-07-24T02:59:20.040Z,37.93
2018-07-24T03:01:49.293Z,37.67
2018-07-24T03:04:18.037Z,37.57
2018-07-24T03:06:46.735Z,36.97
2018-07-24T03:09:15.824Z,37.97
2018-07-24T03:11:44.536Z,38.27
2018-07-24T03:14:13.173Z,39.63
2018-07-24T03:16:41.990Z,36.20
2018-07-24T03:19:10.635Z,38.83
2018-07-24T03:21:39.327Z,36.77
2018-07-24T03:24:08.179Z,39.90
2018-07-24T03:26:37.131Z,40.80
2018-07-24T03:29:06.264Z,38.03
2018-07-24T03:31:34.906Z,38.07
2018-07-24T03:34:03.524Z,39.67
2018-07-24T03:36:32.325Z,41.07
2018-07-24T03:39:01.140Z,37.90
2018-07-24T03:41:29.951Z,40.77
2018-07-24T03:43:58.637Z,41.70
2018-07-24T03:46:27.652Z,41.50
2018-07-24T03:48:56.403Z,41.30
2018-07-24T03:51:25.211Z,37.30
2018-07-24T03:53:54.067Z,39.27
2018-07-24T03:56:22.781Z,39.10
2018-07-24T03:58:51.613Z,37.67
2018-07-24T04:01:20.303Z,37.83
2018-07-24T04:03:48.983Z,38.13
2018-07-24T04:06:17.634Z,38.27
2018-07-24T04:08:46.345Z,36.93
2018-07-24T04:11:15.106Z,36.50
2018-07-24T04:13:44.550Z,34.97
2018-07-24T04:16:13.316Z,37.53
2018-07-24T04:18:50.079Z,38.13
2018-07-24T04:21:20.012Z,36.03
2018-07-24T04:23:49.491Z,37.97
2018-07-24T04:26:18.172Z,36.37
2018-07-24T04:28:47.604Z,39.80
2018-07-24T04:31:16.252Z,39.33
2018-07-24T04:33:45.127Z,37.53
2018-07-24T04:36:13.855Z,40.47
2018-07-24T04:38:42.440Z,39.80
2018-07-24T04:41:11.253Z,36.73
2018-07-24T04:43:40.040Z,35.80
2018-07-24T04:46:08.839Z,38.80
2018-07-24T04:48:37.528Z,37.83
2018-07-24T04:51:06.384Z,38.00
2018-07-24T04:53:35.163Z,35.90
2018-07-24T04:56:04.128Z,37.27
2018-07-24T04:58:32.852Z,37.20
2018-07-24T05:01:01.504Z,34.93
2018-07-24T05:03:30.308Z,37.40
2018-07-24T05:05:59.252Z,36.10
2018-07-24T05:08:27.852Z,38.30
2018-07-24T05:10:56.869Z,37.83
2018-07-24T05:13:25.603Z,36.70
2018-07-24T05:15:55.255Z,34.60
2018-07-24T05:18:23.940Z,38.07
2018-07-24T05:20:52.666Z,38.03
2018-07-24T05:23:21.585Z,36.20
2018-07-24T05:25:50.217Z,35.67
2018-07-24T05:28:18.928Z,37.30
2018-07-24T05:30:47.628Z,36.83
2018-07-24T05:33:16.377Z,33.90
2018-07-24T05:35:45.302Z,36.20
2018-07-24T05:38:13.999Z,32.90
2018-07-24T05:40:42.739Z,35.93
2018-07-24T05:43:11.820Z,36.43
2018-07-24T05:45:40.613Z,38.80
2018-07-24T05:48:09.328Z,33.13
2018-07-24T05:50:38.243Z,34.37
2018-07-24T05:53:07.075Z,34.37
2018-07-24T05:55:36.793Z,33.40
2018-07-24T05:58:05.403Z,35.17
2018-07-24T06:00:34.188Z,34.10
2018-07-24T06:03:02.947Z,33.13
2018-07-24T06:05:31.669Z,34.60
2018-07-24T06:08:00.322Z,36.37
2018-07-24T06:10:28.901Z,34.00
2018-07-24T06:12:57.595Z,34.40
2018-07-24T06:15:26.281Z,32.50
2018-07-24T06:17:55.005Z,31.77
2018-07-24T06:20:24.095Z,30.47
2018-07-24T06:22:52.811Z,33.13
2018-07-24T06:25:21.531Z,31.13
2018-07-24T06:27:50.223Z,31.60
2018-07-24T06:30:18.989Z,30.83
2018-07-24T06:32:47.950Z,31.93
2018-07-24T06:35:16.816Z,31.60
2018-07-24T06:37:45.728Z,31.63
2018-07-24T06:40:14.437Z,28.93
2018-07-24T06:42:43.389Z,27.50
2018-07-24T06:45:12.097Z,29.80
2018-07-24T06:47:40.840Z,29.20
2018-07-24T06:50:09.631Z,25.20
2018-07-24T06:52:38.732Z,24.70
2018-07-24T06:55:07.556Z,24.70
2018-07-24T06:57:36.289Z,23.47
2018-07-24T07:00:05.380Z,20.70
2018-07-24T07:02:34.081Z,21.70
2018-07-24T07:05:03.111Z,21.13
2018-07-24T07:07:31.866Z,19.83
2018-07-24T07:10:00.429Z,20.27
2018-07-24T07:12:29.460Z,18.00
2018-07-24T07:14:58.220Z,19.27
2018-07-24T07:17:27.020Z,17.23
2018-07-24T07:19:56.235Z,16.90
2018-07-24T07:22:25.418Z,16.67
2018-07-24T07:24:54.248Z,18.33
2018-07-24T07:27:23.207Z,19.20
2018-07-24T07:29:51.824Z,19.10
2018-07-24T07:32:20.880Z,17.57
2018-07-24T07:34:49.986Z,19.73
2018-07-24T07:37:18.903Z,19.03
2018-07-24T07:39:47.587Z,16.73
2018-07-24T07:42:16.578Z,19.93
2018-07-24T07:44:45.200Z,21.67
2018-07-24T07:47:13.966Z,19.97
2018-07-24T07:49:42.660Z,20.20
2018-07-24T07:52:11.580Z,20.77
2018-07-24T07:54:40.348Z,19.93
2018-07-24T07:57:09.416Z,19.37
2018-07-24T07:59:38.147Z,19.10
2018-07-24T08:02:06.833Z,18.77
2018-07-24T08:04:35.764Z,16.30
2018-07-24T08:07:04.412Z,17.10
2018-07-24T08:09:33.204Z,15.43
2018-07-24T08:12:02.044Z,18.53
2018-07-24T08:14:30.763Z,16.80
2018-07-24T08:16:59.463Z,16.70
2018-07-24T08:19:28.224Z,14.80
2018-07-24T08:21:57.020Z,16.00
2018-07-24T08:24:25.771Z,14.30
2018-07-24T08:26:54.965Z,14.70
2018-07-24T08:29:24.088Z,15.97
2018-07-24T08:31:52.683Z,16.30
2018-07-24T08:34:21.956Z,14.40
2018-07-24T08:36:50.745Z,15.37
2018-07-24T08:39:19.600Z,16.17
2018-07-24T08:41:48.544Z,14.97
2018-07-24T08:44:17.380Z,14.30
2018-07-24T08:46:46.237Z,11.80
2018-07-24T08:49:15.000Z,12.37
2018-07-24T08:51:43.873Z,10.67
2018-07-24T08:54:12.596Z,9.90
2018-07-24T08:56:41.603Z,9.80
2018-07-24T08:59:10.280Z,10.73
2018-07-24T09:01:38.983Z,9.10
2018-07-24T09:04:07.912Z,9.77
2018-07-24T09:06:36.537Z,8.70
2018-07-24T09:09:08.321Z,9.73
2018-07-24T09:11:37.045Z,9.60
2018-07-24T09:14:05.827Z,8.87
2018-07-24T09:16:34.824Z,9.30
2018-07-24T09:19:03.412Z,9.23
2018-07-24T09:21:32.041Z,9.23
2018-07-24T09:24:00.976Z,8.23
2018-07-24T09:26:47.525Z,8.80
2018-07-24T09:29:16.376Z,9.47
2018-07-24T09:31:45.444Z,9.50
2018-07-24T09:34:14.226Z,9.30
2018-07-24T09:36:43.443Z,8.13
2018-07-24T09:39:12.419Z,8.90
2018-07-24T09:41:41.004Z,8.80
2018-07-24T09:44:10.112Z,7.63
2018-07-24T09:46:38.754Z,8.27
2018-07-24T09:49:07.343Z,8.50
2018-07-24T09:51:36.272Z,7.87
2018-07-24T09:54:04.907Z,7.60
2018-07-24T09:56:33.660Z,7.50
2018-07-24T09:59:02.343Z,7.93
2018-07-24T10:01:33.484Z,7.07
2018-07-24T10:04:03.117Z,7.13
2018-07-24T10:06:32.872Z,7.63
2018-07-24T10:09:01.548Z,7.70
2018-07-24T10:11:30.272Z,7.43
2018-07-24T10:13:58.925Z,7.30
2018-07-24T10:16:27.541Z,7.43
2018-07-24T10:18:56.278Z,7.50
2018-07-24T10:21:24.923Z,6.90
2018-07-24T10:23:53.624Z,7.37
2018-07-24T10:26:22.320Z,6.43
2018-07-24T10:28:50.936Z,6.80
2018-07-24T10:31:19.984Z,7.40
2018-07-24T10:33:51.852Z,7.10
2018-07-24T10:36:20.681Z,6.50
2018-07-24T10:38:49.244Z,6.37
2018-07-24T10:41:17.963Z,6.43
2018-07-24T10:43:46.637Z,6.93
2018-07-24T10:46:15.187Z,6.70
2018-07-24T10:48:43.985Z,6.97
2018-07-24T10:51:12.796Z,6.90
2018-07-24T10:53:41.955Z,7.03
2018-07-24T10:56:10.720Z,7.37
2018-07-24T10:58:39.471Z,7.60
2018-07-24T11:01:08.356Z,6.70
2018-07-24T11:03:36.956Z,7.30
2018-07-24T11:06:05.615Z,7.40
2018-07-24T11:08:34.419Z,7.37
2018-07-24T11:11:03.386Z,6.93
2018-07-24T11:13:32.337Z,6.47
2018-07-24T11:16:01.341Z,6.93
2018-07-24T11:18:30.012Z,5.50
2018-07-24T11:20:58.823Z,5.40
2018-07-24T11:23:27.604Z,6.40
2018-07-24T11:25:56.492Z,6.17
2018-07-24T11:28:25.283Z,6.42
2018-07-24T11:30:53.900Z,5.90
2018-07-24T11:33:22.544Z,5.83
2018-07-24T11:35:51.477Z,6.75
2018-07-24T11:38:20.060Z,6.25
2018-07-24T11:40:49.104Z,6.07
2018-07-24T11:43:17.750Z,6.23
2018-07-24T11:45:46.540Z,6.33
2018-07-24T11:48:15.440Z,7.00
2018-07-24T11:50:43.983Z,6.22
2018-07-24T11:53:12.583Z,6.55
2018-07-24T11:55:41.228Z,6.47
2018-07-24T11:58:09.875Z,5.17
2018-07-24T12:00:38.681Z,6.17
2018-07-24T12:03:07.905Z,5.58
2018-07-24T12:05:36.652Z,5.85
2018-07-24T12:08:05.324Z,5.72
2018-07-24T12:10:34.045Z,5.75
2018-07-24T12:13:02.710Z,6.10
2018-07-24T12:15:31.371Z,6.40
2018-07-24T12:18:00.021Z,6.12
2018-07-24T12:20:28.604Z,6.40
2018-07-24T12:22:57.228Z,6.03
2018-07-24T12:25:26.056Z,6.05
2018-07-24T12:27:54.971Z,5.80
2018-07-24T12:30:23.507Z,5.08
2018-07-24T12:32:52.430Z,5.37
2018-07-24T12:35:21.291Z,6.47
2018-07-24T12:37:49.947Z,5.85
2018-07-24T12:40:18.896Z,5.72
2018-07-24T12:42:47.636Z,5.50
2018-07-24T12:45:16.337Z,5.47
2018-07-24T12:47:45.255Z,6.80
2018-07-24T12:50:13.816Z,5.25
2018-07-24T12:52:42.593Z,5.50
2018-07-24T12:55:11.684Z,5.80
2018-07-24T12:57:40.484Z,5.30
2018-07-24T13:00:09.388Z,6.03
2018-07-24T13:02:38.519Z,5.45
2018-07-24T13:05:07.142Z,6.47
2018-07-24T13:07:35.741Z,5.92
2018-07-24T13:10:04.863Z,5.90
2018-07-24T13:12:33.409Z,5.75
2018-07-24T13:15:01.988Z,6.73
2018-07-24T13:17:30.761Z,6.28
2018-07-24T13:19:59.536Z,6.85
2018-07-24T13:22:28.272Z,6.67
2018-07-24T13:24:56.971Z,5.25
2018-07-24T13:27:25.680Z,6.42
2018-07-24T13:29:54.472Z,5.60
2018-07-24T13:32:23.279Z,4.72
2018-07-24T13:34:51.923Z,5.58
2018-07-24T13:37:20.732Z,5.65
2018-07-24T13:39:49.604Z,6.50
2018-07-24T13:42:18.556Z,5.40
2018-07-24T13:44:47.132Z,6.17
2018-07-24T13:47:15.991Z,6.53
2018-07-24T13:49:44.932Z,7.00
2018-07-24T13:52:13.791Z,5.75
2018-07-24T13:54:42.576Z,6.70
2018-07-24T13:57:11.850Z,5.77
2018-07-24T13:59:40.894Z,6.80
2018-07-24T14:02:09.911Z,6.87
2018-07-24T14:04:38.842Z,6.43
2018-07-24T14:07:09.432Z,5.70
2018-07-24T14:09:38.581Z,7.03
2018-07-24T14:12:07.504Z,5.90
2018-07-24T14:14:36.332Z,6.63
2018-07-24T14:17:05.215Z,6.00
2018-07-24T14:19:33.779Z,5.63
2018-07-24T14:22:03.103Z,5.70
2018-07-24T14:24:32.220Z,5.80
2018-07-24T14:27:00.954Z,7.10
2018-07-24T14:29:29.694Z,6.20
2018-07-24T14:31:58.533Z,5.90
2018-07-24T14:34:27.378Z,6.50
2018-07-24T14:36:56.172Z,6.53
2018-07-24T14:39:24.877Z,5.90
2018-07-24T14:41:53.695Z,5.93
2018-07-24T14:44:22.903Z,6.00
2018-07-24T14:46:51.559Z,6.30
2018-07-24T14:49:20.240Z,5.90
2018-07-24T14:51:48.851Z,6.30
2018-07-24T14:54:17.508Z,5.87
2018-07-24T14:56:47.128Z,5.90
2018-07-24T14:59:16.095Z,6.23
2018-07-24T15:01:44.691Z,5.07
2018-07-24T15:04:13.303Z,5.47
2018-07-24T15:06:42.309Z,5.60
2018-07-24T15:09:12.423Z,5.87
2018-07-24T15:11:41.533Z,6.87
2018-07-24T15:14:10.594Z,6.50
2018-07-24T15:16:39.220Z,6.97
2018-07-24T15:19:07.868Z,5.87
2018-07-24T15:21:36.628Z,6.20
2018-07-24T15:24:05.606Z,5.90
2018-07-24T15:26:45.823Z,6.50
2018-07-24T15:29:14.468Z,6.80
2018-07-24T15:31:43.056Z,7.50
2018-07-24T15:34:11.695Z,7.00
2018-07-24T15:36:40.723Z,6.30
2018-07-24T15:39:12.614Z,7.40
2018-07-24T15:41:41.969Z,7.20
2018-07-24T15:44:10.808Z,7.50
2018-07-24T15:46:40.079Z,6.50
2018-07-24T15:49:08.669Z,6.67
2018-07-24T15:51:37.759Z,6.37
2018-07-24T15:54:06.709Z,7.37
2018-07-24T15:56:35.270Z,7.50
2018-07-24T15:59:04.021Z,7.83
2018-07-24T16:01:32.807Z,7.70
2018-07-24T16:04:01.564Z,6.73
2018-07-24T16:06:30.622Z,6.87
2018-07-24T16:08:59.400Z,7.63
2018-07-24T16:11:28.093Z,7.60
2018-07-24T16:13:56.820Z,6.40
2018-07-24T16:16:25.799Z,7.63
2018-07-24T16:18:54.432Z,6.80
2018-07-24T16:21:23.118Z,7.07
2018-07-24T16:23:51.754Z,6.97
2018-07-24T16:26:20.547Z,6.70
2018-07-24T16:28:49.404Z,5.67
2018-07-24T16:31:19.554Z,5.97
2018-07-24T16:33:49.177Z,7.00
2018-07-24T16:36:17.864Z,7.20
2018-07-24T16:38:47.124Z,7.10
2018-07-24T16:41:19.012Z,5.83
2018-07-24T16:43:48.681Z,6.70
2018-07-24T16:46:18.024Z,5.90
2018-07-24T16:48:46.981Z,5.80
2018-07-24T16:51:16.382Z,7.30
2018-07-24T16:53:46.282Z,6.47
2018-07-24T16:56:16.098Z,6.73
2018-07-24T16:58:46.007Z,7.03
2018-07-24T17:01:16.277Z,7.47
2018-07-24T17:03:46.912Z,7.10
2018-07-24T17:06:17.659Z,6.47
2018-07-24T17:08:46.271Z,7.13
2018-07-24T17:11:16.404Z,6.53
2018-07-24T17:13:45.182Z,6.60
2018-07-24T17:16:14.733Z,6.60
2018-07-24T17:18:43.487Z,7.20
2018-07-24T17:21:12.356Z,6.77
2018-07-24T17:23:42.381Z,7.00
2018-07-24T17:26:13.015Z,6.97
2018-07-24T17:28:43.063Z,7.63
2018-07-24T17:31:13.091Z,6.60
2018-07-24T17:33:42.405Z,6.10
2018-07-24T17:36:11.549Z,5.90
2018-07-24T17:38:42.362Z,5.90
2018-07-24T17:41:12.261Z,5.93
2018-07-24T17:43:42.688Z,6.40
2018-07-24T17:46:12.893Z,6.90
2018-07-24T17:48:42.556Z,5.87
2018-07-24T17:51:12.598Z,6.60
2018-07-24T17:53:41.350Z,6.80
2018-07-24T17:56:10.187Z,6.80
2018-07-24T17:58:38.832Z,6.70
2018-07-24T18:01:07.428Z,7.07
2018-07-24T18:03:36.091Z,7.07
2018-07-24T18:06:05.011Z,6.23
2018-07-24T18:08:33.824Z,7.17
2018-07-24T18:11:03.876Z,6.93
2018-07-24T18:13:32.652Z,6.40
2018-07-24T18:16:01.287Z,7.40
2018-07-24T18:18:30.049Z,7.03
2018-07-24T18:20:58.640Z,8.20
2018-07-24T18:23:27.495Z,7.00
2018-07-24T18:25:56.804Z,6.83
2018-07-24T18:28:25.414Z,7.57
2018-07-24T18:30:54.313Z,7.93
2018-07-24T18:33:23.599Z,7.63
2018-07-24T18:35:53.136Z,8.20
2018-07-24T18:38:22.051Z,6.97
2018-07-24T18:40:51.158Z,8.27
2018-07-24T18:43:19.728Z,7.60
2018-07-24T18:45:48.432Z,8.20
2018-07-24T18:48:17.143Z,8.93
2018-07-24T18:50:46.137Z,8.63
2018-07-24T18:53:14.957Z,8.63
2018-07-24T18:55:43.547Z,9.97
2018-07-24T18:58:12.109Z,10.07
2018-07-24T19:00:41.643Z,9.00
2018-07-24T19:03:10.660Z,10.37
2018-07-24T19:05:39.288Z,9.93
2018-07-24T19:08:07.880Z,9.53
2018-07-24T19:10:37.573Z,10.70
2018-07-24T19:13:06.476Z,8.93
2018-07-24T19:15:35.164Z,9.87
2018-07-24T19:18:04.022Z,9.70
2018-07-24T19:20:32.704Z,7.93
2018-07-24T19:23:01.550Z,8.70
2018-07-24T19:25:30.456Z,7.90
2018-07-24T19:27:59.289Z,7.87
2018-07-24T19:30:28.045Z,8.97
2018-07-24T19:32:56.714Z,8.30
2018-07-24T19:35:25.376Z,9.00
2018-07-24T19:37:54.162Z,9.60
2018-07-24T19:40:23.320Z,9.20
2018-07-24T19:42:52.277Z,11.00
2018-07-24T19:45:20.943Z,10.00
2018-07-24T19:47:49.676Z,10.27
2018-07-24T19:50:18.268Z,10.80
2018-07-24T19:52:46.881Z,9.20
2018-07-24T19:55:15.796Z,9.10
2018-07-24T19:57:44.623Z,9.73
2018-07-24T20:00:14.072Z,9.10
2018-07-24T20:02:42.914Z,10.70
2018-07-24T20:05:12.321Z,10.30
2018-07-24T20:07:41.651Z,10.30
2018-07-24T20:10:10.402Z,9.47
2018-07-24T20:12:39.048Z,10.43
2018-07-24T20:15:07.803Z,11.03
2018-07-24T20:17:37.084Z,11.20
2018-07-24T20:20:06.472Z,10.00
2018-07-24T20:22:35.375Z,9.90
2018-07-24T20:25:04.471Z,10.73
2018-07-24T20:27:33.211Z,10.67
2018-07-24T20:30:01.875Z,10.93
2018-07-24T20:32:30.488Z,10.20
2018-07-24T20:34:59.250Z,10.70
2018-07-24T20:37:28.224Z,10.10
2018-07-24T20:39:57.287Z,11.07
2018-07-24T20:42:26.636Z,10.30
2018-07-24T20:44:56.081Z,10.13
2018-07-24T20:47:25.506Z,12.13
2018-07-24T20:49:54.216Z,11.77
2018-07-24T20:52:23.193Z,11.37
2018-07-24T20:54:53.163Z,10.80
2018-07-24T20:57:21.839Z,11.53
2018-07-24T20:59:50.656Z,11.33
2018-07-24T21:02:19.624Z,11.40
2018-07-24T21:04:48.509Z,11.50
2018-07-24T21:07:17.226Z,11.27
2018-07-24T21:09:45.920Z,11.93
2018-07-24T21:12:14.692Z,12.13
2018-07-24T21:14:43.779Z,11.90
2018-07-24T21:17:12.683Z,11.93
2018-07-24T21:19:41.275Z,10.83
2018-07-24T21:22:09.996Z,11.23
2018-07-24T21:24:38.646Z,12.57
2018-07-24T21:27:07.284Z,10.50
2018-07-24T21:29:36.012Z,11.80
2018-07-24T21:32:05.053Z,12.10
2018-07-24T21:34:33.747Z,11.47
2018-07-24T21:37:02.300Z,12.63
2018-07-24T21:39:30.969Z,11.97
2018-07-24T21:41:59.714Z,12.10
2018-07-24T21:44:29.202Z,13.27
2018-07-24T21:46:58.148Z,12.47
2018-07-24T21:49:26.943Z,13.67
2018-07-24T21:51:55.799Z,13.23
2018-07-24T21:54:24.521Z,12.20
2018-07-24T21:56:53.247Z,12.03
2018-07-24T21:59:22.152Z,12.07
2018-07-24T22:01:50.882Z,12.40
2018-07-24T22:04:19.889Z,11.40
2018-07-24T22:06:48.611Z,10.30
2018-07-24T22:09:17.352Z,13.23
2018-07-24T22:11:45.996Z,14.17
2018-07-24T22:14:14.640Z,13.00
2018-07-24T22:16:43.432Z,14.80
2018-07-24T22:19:12.069Z,13.47
2018-07-24T22:21:40.789Z,14.60
2018-07-24T22:24:09.473Z,13.40
2018-07-24T22:26:38.140Z,13.90
2018-07-24T22:29:06.912Z,15.37
2018-07-24T22:31:36.136Z,13.40
2018-07-24T22:34:04.850Z,13.70
2018-07-24T22:36:33.459Z,14.30
2018-07-24T22:39:02.172Z,14.47
2018-07-24T22:41:31.156Z,14.33
2018-07-24T22:43:59.831Z,14.60
2018-07-24T22:46:28.960Z,15.20
2018-07-24T22:48:57.613Z,15.27
2018-07-24T22:51:26.256Z,15.57
2018-07-24T22:53:55.824Z,15.10
2018-07-24T22:56:25.095Z,15.00
2018-07-24T22:58:53.943Z,15.03
2018-07-24T23:01:22.923Z,16.20
2018-07-24T23:03:54.782Z,14.90
2018-07-24T23:06:23.680Z,15.70
2018-07-24T23:08:52.516Z,14.97
2018-07-24T23:11:21.340Z,14.97
2018-07-24T23:13:50.100Z,14.97
2018-07-24T23:16:19.637Z,15.97
2018-07-24T23:18:48.601Z,15.00
2018-07-24T23:21:17.581Z,16.63
2018-07-24T23:23:46.863Z,15.00
2018-07-24T23:26:15.469Z,15.50
2018-07-24T23:28:44.256Z,15.87
2018-07-24T23:31:13.123Z,15.33
2018-07-24T23:33:41.806Z,15.43
2018-07-24T23:36:10.790Z,14.10
2018-07-24T23:38:39.476Z,16.37
2018-07-24T23:41:08.191Z,16.73
2018-07-24T23:43:37.720Z,16.00
2018-07-24T23:46:06.520Z,15.60
2018-07-24T23:48:35.303Z,16.90
2018-07-24T23:51:04.412Z,16.33
2018-07-24T23:53:33.076Z,17.20
2018-07-24T23:56:01.896Z,17.83
2018-07-24T23:58:30.653Z,17.20
